sensor_id;sensor_type;location;lat;lon;timestamp;pressure;altitude;pressure_sealevel;temperature;humidity
75891;BME280;64571;47.512;19.054;2023-09-07T00:02:36;101127.12;;;18.89;69.00
75891;BME280;64571;47.512;19.054;2023-09-07T00:05:44;101144.19;;;18.93;69.43
75891;BME280;64571;47.512;19.054;2023-09-07T00:08:47;101140.56;;;18.84;70.08
75891;BME280;64571;47.512;19.054;2023-09-07T00:11:50;101127.53;;;18.70;70.27
75891;BME280;64571;47.512;19.054;2023-09-07T00:14:53;101144.72;;;18.78;70.02
75891;BME280;64571;47.512;19.054;2023-09-07T00:17:56;101143.75;;;18.65;70.08
75891;BME280;64571;47.512;19.054;2023-09-07T00:20:59;101134.94;;;18.66;69.64
75891;BME280;64571;47.512;19.054;2023-09-07T00:24:03;101145.75;;;18.56;69.76
75891;BME280;64571;47.512;19.054;2023-09-07T00:27:07;101144.94;;;18.55;69.84
75891;BME280;64571;47.512;19.054;2023-09-07T00:30:10;101130.16;;;18.50;69.82
75891;BME280;64571;47.512;19.054;2023-09-07T00:33:13;101143.41;;;18.58;69.83
75891;BME280;64571;47.512;19.054;2023-09-07T00:36:16;101132.69;;;18.42;70.24
75891;BME280;64571;47.512;19.054;2023-09-07T00:39:18;101137.97;;;18.44;70.43
75891;BME280;64571;47.512;19.054;2023-09-07T00:42:21;101138.31;;;18.42;70.57
75891;BME280;64571;47.512;19.054;2023-09-07T00:45:23;101137.31;;;18.38;70.19
75891;BME280;64571;47.512;19.054;2023-09-07T00:48:26;101147.41;;;18.39;70.03
75891;BME280;64571;47.512;19.054;2023-09-07T00:51:29;101150.22;;;18.39;70.32
75891;BME280;64571;47.512;19.054;2023-09-07T00:54:32;101135.16;;;18.35;70.86
75891;BME280;64571;47.512;19.054;2023-09-07T00:57:36;101145.78;;;18.30;71.42
75891;BME280;64571;47.512;19.054;2023-09-07T01:00:42;101132.69;;;18.34;71.23
75891;BME280;64571;47.512;19.054;2023-09-07T01:03:45;101141.97;;;18.26;71.88
75891;BME280;64571;47.512;19.054;2023-09-07T01:06:54;101133.19;;;18.27;71.58
75891;BME280;64571;47.512;19.054;2023-09-07T01:10:00;101145.13;;;18.24;71.57
75891;BME280;64571;47.512;19.054;2023-09-07T01:13:03;101132.53;;;18.13;71.03
75891;BME280;64571;47.512;19.054;2023-09-07T01:16:06;101145.94;;;18.07;71.01
75891;BME280;64571;47.512;19.054;2023-09-07T01:19:10;101144.12;;;18.11;71.04
75891;BME280;64571;47.512;19.054;2023-09-07T01:22:14;101141.78;;;18.05;70.96
75891;BME280;64571;47.512;19.054;2023-09-07T01:25:17;101136.31;;;18.00;71.28
75891;BME280;64571;47.512;19.054;2023-09-07T01:28:19;101142.13;;;18.03;71.41
75891;BME280;64571;47.512;19.054;2023-09-07T01:31:24;101139.78;;;18.05;71.65
75891;BME280;64571;47.512;19.054;2023-09-07T01:34:26;101144.44;;;18.10;71.70
75891;BME280;64571;47.512;19.054;2023-09-07T01:37:29;101141.13;;;18.08;71.48
75891;BME280;64571;47.512;19.054;2023-09-07T01:40:32;101131.22;;;18.10;71.80
75891;BME280;64571;47.512;19.054;2023-09-07T01:43:35;101136.81;;;18.19;71.65
75891;BME280;64571;47.512;19.054;2023-09-07T01:46:38;101133.03;;;18.15;71.66
75891;BME280;64571;47.512;19.054;2023-09-07T01:49:41;101142.44;;;18.19;72.19
75891;BME280;64571;47.512;19.054;2023-09-07T01:52:46;101144.28;;;18.06;73.92
75891;BME280;64571;47.512;19.054;2023-09-07T01:55:50;101135.16;;;17.92;74.14
75891;BME280;64571;47.512;19.054;2023-09-07T01:58:55;101137.47;;;17.90;73.84
75891;BME280;64571;47.512;19.054;2023-09-07T02:01:58;101141.28;;;17.85;74.22
75891;BME280;64571;47.512;19.054;2023-09-07T02:05:01;101146.09;;;17.85;73.89
75891;BME280;64571;47.512;19.054;2023-09-07T02:08:04;101149.25;;;17.83;73.93
75891;BME280;64571;47.512;19.054;2023-09-07T02:11:07;101145.91;;;17.81;73.94
75891;BME280;64571;47.512;19.054;2023-09-07T02:14:09;101142.88;;;17.69;74.40
75891;BME280;64571;47.512;19.054;2023-09-07T02:17:14;101137.06;;;17.57;74.10
75891;BME280;64571;47.512;19.054;2023-09-07T02:20:20;101144.34;;;17.58;73.60
75891;BME280;64571;47.512;19.054;2023-09-07T02:23:23;101154.09;;;17.60;73.13
75891;BME280;64571;47.512;19.054;2023-09-07T02:26:25;101150.31;;;17.65;72.43
75891;BME280;64571;47.512;19.054;2023-09-07T02:29:28;101150.16;;;17.61;72.43
75891;BME280;64571;47.512;19.054;2023-09-07T02:32:31;101147.50;;;17.56;72.29
75891;BME280;64571;47.512;19.054;2023-09-07T02:35:37;101142.97;;;17.46;72.49
75891;BME280;64571;47.512;19.054;2023-09-07T02:38:39;101146.13;;;17.45;72.64
75891;BME280;64571;47.512;19.054;2023-09-07T02:41:43;101149.91;;;17.40;73.01
75891;BME280;64571;47.512;19.054;2023-09-07T02:44:45;101149.91;;;17.40;72.94
75891;BME280;64571;47.512;19.054;2023-09-07T02:47:48;101147.59;;;17.42;72.45
75891;BME280;64571;47.512;19.054;2023-09-07T02:50:53;101158.84;;;17.42;72.36
75891;BME280;64571;47.512;19.054;2023-09-07T02:53:56;101165.97;;;17.40;72.53
75891;BME280;64571;47.512;19.054;2023-09-07T02:57:00;101156.66;;;17.31;72.72
75891;BME280;64571;47.512;19.054;2023-09-07T03:00:03;101159.13;;;17.32;72.77
75891;BME280;64571;47.512;19.054;2023-09-07T03:03:12;101158.13;;;17.28;72.77
75891;BME280;64571;47.512;19.054;2023-09-07T03:06:16;101165.25;;;17.26;72.81
75891;BME280;64571;47.512;19.054;2023-09-07T03:09:19;101152.34;;;17.25;72.72
75891;BME280;64571;47.512;19.054;2023-09-07T03:12:22;101151.97;;;17.17;72.34
75891;BME280;64571;47.512;19.054;2023-09-07T03:15:26;101159.28;;;17.27;72.35
75891;BME280;64571;47.512;19.054;2023-09-07T03:18:30;101147.19;;;17.18;72.59
75891;BME280;64571;47.512;19.054;2023-09-07T03:21:34;101159.06;;;17.15;72.50
75891;BME280;64571;47.512;19.054;2023-09-07T03:24:36;101162.75;;;17.24;72.09
75891;BME280;64571;47.512;19.054;2023-09-07T03:27:39;101159.06;;;17.15;72.17
75891;BME280;64571;47.512;19.054;2023-09-07T03:30:43;101154.97;;;17.21;71.79
75891;BME280;64571;47.512;19.054;2023-09-07T03:33:46;101165.06;;;17.22;72.04
75891;BME280;64571;47.512;19.054;2023-09-07T03:36:48;101158.44;;;17.18;72.08
75891;BME280;64571;47.512;19.054;2023-09-07T03:39:51;101164.41;;;17.25;71.84
75891;BME280;64571;47.512;19.054;2023-09-07T03:42:53;101161.88;;;17.15;72.36
75891;BME280;64571;47.512;19.054;2023-09-07T03:45:57;101162.87;;;17.19;72.49
75891;BME280;64571;47.512;19.054;2023-09-07T03:49:00;101163.41;;;17.21;72.37
75891;BME280;64571;47.512;19.054;2023-09-07T03:52:03;101167.53;;;17.24;72.52
75891;BME280;64571;47.512;19.054;2023-09-07T03:55:06;101162.75;;;17.24;72.66
75891;BME280;64571;47.512;19.054;2023-09-07T03:58:10;101161.56;;;17.16;72.94
75891;BME280;64571;47.512;19.054;2023-09-07T04:01:13;101163.72;;;17.19;73.00
75891;BME280;64571;47.512;19.054;2023-09-07T04:04:16;101176.97;;;17.28;73.04
75891;BME280;64571;47.512;19.054;2023-09-07T04:07:19;101167.72;;;17.27;73.53
75891;BME280;64571;47.512;19.054;2023-09-07T04:10:22;101161.25;;;17.18;74.29
75891;BME280;64571;47.512;19.054;2023-09-07T04:13:26;101175.09;;;17.14;75.34
75891;BME280;64571;47.512;19.054;2023-09-07T04:16:29;101163.31;;;17.04;75.57
75891;BME280;64571;47.512;19.054;2023-09-07T04:19:31;101171.91;;;16.99;75.67
75891;BME280;64571;47.512;19.054;2023-09-07T04:22:35;101171.38;;;16.96;75.73
75891;BME280;64571;47.512;19.054;2023-09-07T04:25:37;101172.34;;;16.92;74.72
75891;BME280;64571;47.512;19.054;2023-09-07T04:28:43;101181.72;;;16.87;74.43
75891;BME280;64571;47.512;19.054;2023-09-07T04:31:45;101184.22;;;16.89;74.51
75891;BME280;64571;47.512;19.054;2023-09-07T04:34:53;101190.47;;;16.86;74.87
75891;BME280;64571;47.512;19.054;2023-09-07T04:37:56;101180.84;;;16.78;74.63
75891;BME280;64571;47.512;19.054;2023-09-07T04:41:09;101187.81;;;16.81;74.31
75891;BME280;64571;47.512;19.054;2023-09-07T04:44:12;101188.44;;;16.78;74.62
75891;BME280;64571;47.512;19.054;2023-09-07T04:47:15;101190.44;;;16.77;74.84
75891;BME280;64571;47.512;19.054;2023-09-07T04:50:18;101183.16;;;16.76;74.94
75891;BME280;64571;47.512;19.054;2023-09-07T04:53:21;101181.50;;;16.75;75.29
75891;BME280;64571;47.512;19.054;2023-09-07T04:56:24;101195.91;;;16.82;75.30
75891;BME280;64571;47.512;19.054;2023-09-07T04:59:28;101189.13;;;16.83;75.38
75891;BME280;64571;47.512;19.054;2023-09-07T05:02:31;101189.00;;;16.88;75.42
75891;BME280;64571;47.512;19.054;2023-09-07T05:05:34;101185.50;;;16.83;75.71
75891;BME280;64571;47.512;19.054;2023-09-07T05:08:36;101187.34;;;16.87;75.88
75891;BME280;64571;47.512;19.054;2023-09-07T05:11:39;101199.25;;;16.84;76.18
75891;BME280;64571;47.512;19.054;2023-09-07T05:14:41;101201.03;;;16.80;76.10
75891;BME280;64571;47.512;19.054;2023-09-07T05:17:44;101199.87;;;16.81;75.69
75891;BME280;64571;47.512;19.054;2023-09-07T05:20:47;101197.13;;;16.90;75.52
75891;BME280;64571;47.512;19.054;2023-09-07T05:23:54;101201.25;;;16.92;75.20
75891;BME280;64571;47.512;19.054;2023-09-07T05:26:57;101197.31;;;16.93;74.60
75891;BME280;64571;47.512;19.054;2023-09-07T05:29:59;101203.75;;;16.94;74.42
75891;BME280;64571;47.512;19.054;2023-09-07T05:33:02;101190.72;;;16.98;74.21
75891;BME280;64571;47.512;19.054;2023-09-07T05:36:05;101202.38;;;17.14;73.76
75891;BME280;64571;47.512;19.054;2023-09-07T05:39:08;101210.00;;;17.22;73.37
75891;BME280;64571;47.512;19.054;2023-09-07T05:42:11;101209.72;;;17.32;72.96
75891;BME280;64571;47.512;19.054;2023-09-07T05:45:14;101210.41;;;17.38;72.77
75891;BME280;64571;47.512;19.054;2023-09-07T05:48:17;101214.56;;;17.40;72.10
75891;BME280;64571;47.512;19.054;2023-09-07T05:51:20;101201.50;;;17.44;71.46
75891;BME280;64571;47.512;19.054;2023-09-07T05:54:23;101204.53;;;17.57;70.88
75891;BME280;64571;47.512;19.054;2023-09-07T05:57:25;101215.47;;;17.67;70.15
75891;BME280;64571;47.512;19.054;2023-09-07T06:00:28;101217.25;;;18.03;68.95
75891;BME280;64571;47.512;19.054;2023-09-07T06:03:31;101220.09;;;18.55;66.83
75891;BME280;64571;47.512;19.054;2023-09-07T06:06:34;101216.63;;;18.92;65.30
75891;BME280;64571;47.512;19.054;2023-09-07T06:09:37;101225.00;;;19.18;63.89
75891;BME280;64571;47.512;19.054;2023-09-07T06:12:40;101223.13;;;19.31;62.80
75891;BME280;64571;47.512;19.054;2023-09-07T06:15:43;101216.78;;;19.43;62.29
75891;BME280;64571;47.512;19.054;2023-09-07T06:18:46;101221.38;;;19.56;62.29
75891;BME280;64571;47.512;19.054;2023-09-07T06:21:49;101214.91;;;19.56;61.64
75891;BME280;64571;47.512;19.054;2023-09-07T06:24:51;101224.97;;;19.74;61.47
75891;BME280;64571;47.512;19.054;2023-09-07T06:27:54;101224.16;;;19.73;61.43
75891;BME280;64571;47.512;19.054;2023-09-07T06:30:58;101219.22;;;19.91;61.10
75891;BME280;64571;47.512;19.054;2023-09-07T06:34:02;101224.56;;;20.35;61.80
75891;BME280;64571;47.512;19.054;2023-09-07T06:37:05;101231.88;;;20.57;59.49
75891;BME280;64571;47.512;19.054;2023-09-07T06:40:08;101228.78;;;20.70;58.59
75891;BME280;64571;47.512;19.054;2023-09-07T06:43:12;101229.78;;;20.87;57.89
75891;BME280;64571;47.512;19.054;2023-09-07T06:46:16;101233.16;;;20.80;57.60
75891;BME280;64571;47.512;19.054;2023-09-07T06:49:19;101224.66;;;20.68;57.61
75891;BME280;64571;47.512;19.054;2023-09-07T06:52:22;101228.47;;;20.84;57.80
75891;BME280;64571;47.512;19.054;2023-09-07T06:55:25;101237.22;;;20.91;57.58
75891;BME280;64571;47.512;19.054;2023-09-07T06:58:28;101233.31;;;21.29;56.86
75891;BME280;64571;47.512;19.054;2023-09-07T07:01:31;101233.63;;;21.48;56.20
75891;BME280;64571;47.512;19.054;2023-09-07T07:04:34;101232.84;;;21.27;56.38
75891;BME280;64571;47.512;19.054;2023-09-07T07:07:38;101241.56;;;21.22;56.79
75891;BME280;64571;47.512;19.054;2023-09-07T07:10:42;101228.00;;;21.15;57.09
75891;BME280;64571;47.512;19.054;2023-09-07T07:13:44;101244.13;;;21.15;57.10
75891;BME280;64571;47.512;19.054;2023-09-07T07:16:48;101250.84;;;21.43;56.46
75891;BME280;64571;47.512;19.054;2023-09-07T07:19:50;101242.94;;;21.49;56.26
75891;BME280;64571;47.512;19.054;2023-09-07T07:22:53;101235.78;;;21.76;55.54
75891;BME280;64571;47.512;19.054;2023-09-07T07:25:56;101244.03;;;21.93;55.45
75891;BME280;64571;47.512;19.054;2023-09-07T07:28:59;101239.41;;;22.01;55.13
75891;BME280;64571;47.512;19.054;2023-09-07T07:32:04;101252.16;;;22.07;55.13
75891;BME280;64571;47.512;19.054;2023-09-07T07:35:08;101235.28;;;21.98;55.04
75891;BME280;64571;47.512;19.054;2023-09-07T07:38:11;101249.19;;;22.28;54.49
75891;BME280;64571;47.512;19.054;2023-09-07T07:41:16;101239.38;;;22.38;54.08
75891;BME280;64571;47.512;19.054;2023-09-07T07:44:18;101243.47;;;22.53;53.75
75891;BME280;64571;47.512;19.054;2023-09-07T07:47:21;101250.41;;;22.67;53.66
75891;BME280;64571;47.512;19.054;2023-09-07T07:50:24;101242.97;;;22.63;53.46
75891;BME280;64571;47.512;19.054;2023-09-07T07:53:27;101237.94;;;22.84;53.04
75891;BME280;64571;47.512;19.054;2023-09-07T07:56:29;101247.69;;;22.71;53.46
75891;BME280;64571;47.512;19.054;2023-09-07T07:59:35;101251.88;;;22.89;53.20
75891;BME280;64571;47.512;19.054;2023-09-07T08:02:38;101245.69;;;22.99;53.01
75891;BME280;64571;47.512;19.054;2023-09-07T08:05:42;101243.16;;;23.10;52.61
75891;BME280;64571;47.512;19.054;2023-09-07T08:08:45;101244.16;;;23.18;52.43
75891;BME280;64571;47.512;19.054;2023-09-07T08:11:49;101246.50;;;23.28;52.19
75891;BME280;64571;47.512;19.054;2023-09-07T08:14:52;101236.87;;;23.48;51.82
75891;BME280;64571;47.512;19.054;2023-09-07T08:17:55;101244.50;;;23.60;51.74
75891;BME280;64571;47.512;19.054;2023-09-07T08:20:58;101231.13;;;23.61;51.71
75891;BME280;64571;47.512;19.054;2023-09-07T08:24:01;101233.44;;;23.71;51.26
75891;BME280;64571;47.512;19.054;2023-09-07T08:27:05;101239.19;;;23.90;51.14
75891;BME280;64571;47.512;19.054;2023-09-07T08:30:09;101224.16;;;23.90;51.07
75891;BME280;64571;47.512;19.054;2023-09-07T08:33:12;101227.31;;;24.20;50.55
75891;BME280;64571;47.512;19.054;2023-09-07T08:36:15;101231.19;;;24.47;50.13
75891;BME280;64571;47.512;19.054;2023-09-07T08:39:20;101223.09;;;24.49;49.89
75891;BME280;64571;47.512;19.054;2023-09-07T08:42:23;101221.72;;;24.59;49.46
75891;BME280;64571;47.512;19.054;2023-09-07T08:45:27;101215.94;;;24.74;49.44
75891;BME280;64571;47.512;19.054;2023-09-07T08:48:32;101218.44;;;24.99;49.12
75891;BME280;64571;47.512;19.054;2023-09-07T08:51:35;101213.37;;;24.89;48.80
75891;BME280;64571;47.512;19.054;2023-09-07T08:54:43;101207.19;;;24.64;49.31
75891;BME280;64571;47.512;19.054;2023-09-07T08:57:46;101206.59;;;24.74;49.27
75891;BME280;64571;47.512;19.054;2023-09-07T09:00:49;101205.53;;;24.82;49.13
75891;BME280;64571;47.512;19.054;2023-09-07T09:03:52;101206.56;;;24.93;48.90
75891;BME280;64571;47.512;19.054;2023-09-07T09:06:55;101196.19;;;25.24;47.98
75891;BME280;64571;47.512;19.054;2023-09-07T09:10:07;101208.31;;;25.21;48.21
75891;BME280;64571;47.512;19.054;2023-09-07T09:13:10;101196.97;;;25.70;44.74
75891;BME280;64571;47.512;19.054;2023-09-07T09:16:13;101201.94;;;25.50;43.32
75891;BME280;64571;47.512;19.054;2023-09-07T09:19:17;101187.25;;;25.48;43.11
75891;BME280;64571;47.512;19.054;2023-09-07T09:22:20;101187.06;;;25.61;41.73
75891;BME280;64571;47.512;19.054;2023-09-07T09:25:23;101186.78;;;25.92;41.15
75891;BME280;64571;47.512;19.054;2023-09-07T09:28:26;101192.91;;;26.21;40.27
75891;BME280;64571;47.512;19.054;2023-09-07T09:31:30;101197.00;;;26.50;40.44
75891;BME280;64571;47.512;19.054;2023-09-07T09:34:34;101183.81;;;26.72;39.83
75891;BME280;64571;47.512;19.054;2023-09-07T09:37:47;101189.81;;;26.63;39.79
75891;BME280;64571;47.512;19.054;2023-09-07T09:40:51;101185.50;;;26.76;39.70
75891;BME280;64571;47.512;19.054;2023-09-07T09:43:55;101186.78;;;26.83;39.72
75891;BME280;64571;47.512;19.054;2023-09-07T09:46:58;101197.44;;;27.23;39.22
75891;BME280;64571;47.512;19.054;2023-09-07T09:50:02;101189.47;;;26.68;37.87
75891;BME280;64571;47.512;19.054;2023-09-07T09:53:09;101184.62;;;26.72;37.62
75891;BME280;64571;47.512;19.054;2023-09-07T09:56:12;101186.91;;;26.93;36.84
75891;BME280;64571;47.512;19.054;2023-09-07T09:59:15;101198.44;;;27.41;36.80
75891;BME280;64571;47.512;19.054;2023-09-07T10:02:18;101183.44;;;27.11;36.90
75891;BME280;64571;47.512;19.054;2023-09-07T10:05:21;101179.78;;;27.55;36.29
75891;BME280;64571;47.512;19.054;2023-09-07T10:08:29;101182.22;;;27.52;35.68
75891;BME280;64571;47.512;19.054;2023-09-07T10:11:36;101162.87;;;27.80;35.32
75891;BME280;64571;47.512;19.054;2023-09-07T10:14:41;101180.84;;;27.87;34.59
75891;BME280;64571;47.512;19.054;2023-09-07T10:17:44;101168.16;;;27.74;34.74
75891;BME280;64571;47.512;19.054;2023-09-07T10:20:54;101167.16;;;27.59;35.03
75891;BME280;64571;47.512;19.054;2023-09-07T10:23:58;101167.62;;;27.68;33.80
75891;BME280;64571;47.512;19.054;2023-09-07T10:27:05;101169.16;;;27.51;33.84
75891;BME280;64571;47.512;19.054;2023-09-07T10:30:11;101164.31;;;27.59;35.01
75891;BME280;64571;47.512;19.054;2023-09-07T10:33:21;101175.56;;;27.41;35.75
75891;BME280;64571;47.512;19.054;2023-09-07T10:36:26;101172.44;;;27.54;34.87
75891;BME280;64571;47.512;19.054;2023-09-07T10:39:31;101164.34;;;27.63;33.92
75891;BME280;64571;47.512;19.054;2023-09-07T10:42:34;101158.44;;;27.89;33.53
75891;BME280;64571;47.512;19.054;2023-09-07T10:45:37;101150.88;;;27.63;34.19
75891;BME280;64571;47.512;19.054;2023-09-07T10:48:40;101148.78;;;27.57;33.98
75891;BME280;64571;47.512;19.054;2023-09-07T10:51:44;101137.66;;;27.92;33.35
75891;BME280;64571;47.512;19.054;2023-09-07T10:54:58;101160.09;;;27.42;34.49
75891;BME280;64571;47.512;19.054;2023-09-07T10:58:01;101150.62;;;27.83;33.56
75891;BME280;64571;47.512;19.054;2023-09-07T11:01:04;101139.25;;;27.90;33.09
75891;BME280;64571;47.512;19.054;2023-09-07T11:04:07;101142.69;;;28.20;32.30
75891;BME280;64571;47.512;19.054;2023-09-07T11:07:11;101130.00;;;28.18;32.84
75891;BME280;64571;47.512;19.054;2023-09-07T11:10:14;101138.81;;;28.64;32.77
75891;BME280;64571;47.512;19.054;2023-09-07T11:13:17;101139.59;;;28.58;32.36
75891;BME280;64571;47.512;19.054;2023-09-07T11:16:20;101120.03;;;28.74;31.82
75891;BME280;64571;47.512;19.054;2023-09-07T11:19:26;101122.88;;;28.60;31.78
75891;BME280;64571;47.512;19.054;2023-09-07T11:22:29;101119.94;;;28.45;32.27
75891;BME280;64571;47.512;19.054;2023-09-07T11:25:37;101119.25;;;28.88;32.30
75891;BME280;64571;47.512;19.054;2023-09-07T11:28:40;101121.28;;;28.94;31.73
75891;BME280;64571;47.512;19.054;2023-09-07T11:31:44;101120.81;;;28.64;32.07
75891;BME280;64571;47.512;19.054;2023-09-07T11:34:48;101114.72;;;28.76;32.43
75891;BME280;64571;47.512;19.054;2023-09-07T11:37:53;101105.25;;;28.58;32.43
75891;BME280;64571;47.512;19.054;2023-09-07T11:40:56;101111.06;;;28.93;31.87
75891;BME280;64571;47.512;19.054;2023-09-07T11:43:59;101101.63;;;28.75;32.02
75891;BME280;64571;47.512;19.054;2023-09-07T11:47:01;101102.09;;;29.13;31.58
75891;BME280;64571;47.512;19.054;2023-09-07T11:50:07;101097.22;;;29.24;31.39
75891;BME280;64571;47.512;19.054;2023-09-07T11:53:10;101092.66;;;28.73;32.00
75891;BME280;64571;47.512;19.054;2023-09-07T11:56:12;101090.59;;;28.84;31.78
75891;BME280;64571;47.512;19.054;2023-09-07T11:59:15;101085.75;;;29.24;31.38
75891;BME280;64571;47.512;19.054;2023-09-07T12:02:19;101094.75;;;28.97;31.37
75891;BME280;64571;47.512;19.054;2023-09-07T12:05:24;101091.47;;;29.35;30.69
75891;BME280;64571;47.512;19.054;2023-09-07T12:08:26;101084.47;;;29.53;30.38
75891;BME280;64571;47.512;19.054;2023-09-07T12:11:29;101090.25;;;29.61;30.88
75891;BME280;64571;47.512;19.054;2023-09-07T12:14:33;101084.91;;;29.77;30.00
75891;BME280;64571;47.512;19.054;2023-09-07T12:17:36;101088.16;;;29.79;29.59
75891;BME280;64571;47.512;19.054;2023-09-07T12:20:38;101088.97;;;29.76;29.50
75891;BME280;64571;47.512;19.054;2023-09-07T12:23:41;101086.16;;;29.47;29.66
75891;BME280;64571;47.512;19.054;2023-09-07T12:26:43;101084.06;;;29.76;29.48
75891;BME280;64571;47.512;19.054;2023-09-07T12:29:46;101078.41;;;29.59;29.10
75891;BME280;64571;47.512;19.054;2023-09-07T12:32:49;101085.28;;;29.72;28.69
75891;BME280;64571;47.512;19.054;2023-09-07T12:35:53;101079.62;;;29.08;29.73
75891;BME280;64571;47.512;19.054;2023-09-07T12:38:56;101078.38;;;29.30;30.01
75891;BME280;64571;47.512;19.054;2023-09-07T12:42:07;101077.16;;;29.45;29.64
75891;BME280;64571;47.512;19.054;2023-09-07T12:45:10;101075.91;;;29.61;29.48
75891;BME280;64571;47.512;19.054;2023-09-07T12:48:17;101066.91;;;29.44;29.64
75891;BME280;64571;47.512;19.054;2023-09-07T12:51:19;101063.66;;;29.21;29.91
75891;BME280;64571;47.512;19.054;2023-09-07T12:54:22;101059.97;;;29.38;29.77
75891;BME280;64571;47.512;19.054;2023-09-07T12:57:25;101049.31;;;29.64;29.42
75891;BME280;64571;47.512;19.054;2023-09-07T13:00:28;101055.88;;;29.43;29.47
75891;BME280;64571;47.512;19.054;2023-09-07T13:03:31;101060.34;;;29.65;29.09
75891;BME280;64571;47.512;19.054;2023-09-07T13:06:34;101045.66;;;29.27;30.02
75891;BME280;64571;47.512;19.054;2023-09-07T13:09:37;101035.78;;;29.53;29.59
75891;BME280;64571;47.512;19.054;2023-09-07T13:12:40;101048.06;;;29.58;29.83
75891;BME280;64571;47.512;19.054;2023-09-07T13:15:43;101057.37;;;30.05;29.46
75891;BME280;64571;47.512;19.054;2023-09-07T13:18:46;101047.13;;;30.04;29.16
75891;BME280;64571;47.512;19.054;2023-09-07T13:21:48;101044.78;;;29.48;29.94
75891;BME280;64571;47.512;19.054;2023-09-07T13:24:51;101043.16;;;29.69;29.55
75891;BME280;64571;47.512;19.054;2023-09-07T13:27:54;101044.59;;;30.23;29.21
75891;BME280;64571;47.512;19.054;2023-09-07T13:30:56;101036.19;;;29.70;29.21
75891;BME280;64571;47.512;19.054;2023-09-07T13:33:59;101039.88;;;29.70;28.99
75891;BME280;64571;47.512;19.054;2023-09-07T13:37:02;101033.31;;;29.77;29.19
75891;BME280;64571;47.512;19.054;2023-09-07T13:40:05;101038.91;;;30.09;28.88
75891;BME280;64571;47.512;19.054;2023-09-07T13:43:09;101038.19;;;29.87;28.68
75891;BME280;64571;47.512;19.054;2023-09-07T13:46:12;101034.00;;;30.06;28.65
75891;BME280;64571;47.512;19.054;2023-09-07T13:49:15;101036.03;;;30.09;28.90
75891;BME280;64571;47.512;19.054;2023-09-07T13:52:17;101033.72;;;29.72;29.29
75891;BME280;64571;47.512;19.054;2023-09-07T13:55:20;101021.47;;;29.50;29.48
75891;BME280;64571;47.512;19.054;2023-09-07T13:58:22;101030.09;;;29.39;29.89
75891;BME280;64571;47.512;19.054;2023-09-07T14:01:25;101021.06;;;29.51;29.65
75891;BME280;64571;47.512;19.054;2023-09-07T14:04:28;101003.91;;;29.37;29.64
75891;BME280;64571;47.512;19.054;2023-09-07T14:07:33;101019.44;;;29.54;29.82
75891;BME280;64571;47.512;19.054;2023-09-07T14:10:36;101012.87;;;29.61;29.26
75891;BME280;64571;47.512;19.054;2023-09-07T14:13:38;101016.56;;;29.65;29.14
75891;BME280;64571;47.512;19.054;2023-09-07T14:16:41;101010.44;;;29.41;29.05
75891;BME280;64571;47.512;19.054;2023-09-07T14:19:44;101016.22;;;29.16;29.29
75891;BME280;64571;47.512;19.054;2023-09-07T14:22:48;101012.12;;;29.32;29.13
75891;BME280;64571;47.512;19.054;2023-09-07T14:25:53;101005.16;;;29.08;29.38
75891;BME280;64571;47.512;19.054;2023-09-07T14:28:56;101005.50;;;29.52;28.91
75891;BME280;64571;47.512;19.054;2023-09-07T14:31:59;101006.00;;;28.97;29.22
75891;BME280;64571;47.512;19.054;2023-09-07T14:35:02;101003.97;;;29.05;29.13
75891;BME280;64571;47.512;19.054;2023-09-07T14:38:05;101007.63;;;29.02;29.06
75891;BME280;64571;47.512;19.054;2023-09-07T14:41:08;100991.66;;;29.12;29.12
75891;BME280;64571;47.512;19.054;2023-09-07T14:44:14;101004.34;;;28.89;29.49
75891;BME280;64571;47.512;19.054;2023-09-07T14:47:17;101001.06;;;28.87;28.83
75891;BME280;64571;47.512;19.054;2023-09-07T14:50:20;100994.13;;;28.85;29.24
75891;BME280;64571;47.512;19.054;2023-09-07T14:53:23;100989.22;;;28.71;28.84
75891;BME280;64571;47.512;19.054;2023-09-07T14:56:25;100997.38;;;28.76;28.76
75891;BME280;64571;47.512;19.054;2023-09-07T14:59:29;100993.31;;;28.70;28.69
75891;BME280;64571;47.512;19.054;2023-09-07T15:02:31;100989.19;;;28.64;28.64
75891;BME280;64571;47.512;19.054;2023-09-07T15:05:34;101005.56;;;28.74;28.27
75891;BME280;64571;47.512;19.054;2023-09-07T15:08:38;100987.56;;;28.66;28.35
75891;BME280;64571;47.512;19.054;2023-09-07T15:11:41;100987.53;;;28.45;28.24
75891;BME280;64571;47.512;19.054;2023-09-07T15:14:45;100989.59;;;28.44;27.85
75891;BME280;64571;47.512;19.054;2023-09-07T15:17:48;100989.97;;;28.36;27.55
75891;BME280;64571;47.512;19.054;2023-09-07T15:20:50;100998.09;;;28.26;26.53
75891;BME280;64571;47.512;19.054;2023-09-07T15:23:54;100996.50;;;28.33;26.85
75891;BME280;64571;47.512;19.054;2023-09-07T15:26:56;100997.25;;;28.19;27.03
75891;BME280;64571;47.512;19.054;2023-09-07T15:29:59;100996.06;;;28.20;26.97
75891;BME280;64571;47.512;19.054;2023-09-07T15:33:02;100983.78;;;28.16;27.12
75891;BME280;64571;47.512;19.054;2023-09-07T15:36:05;100983.34;;;28.14;27.10
75891;BME280;64571;47.512;19.054;2023-09-07T15:39:08;100983.34;;;28.07;27.16
75891;BME280;64571;47.512;19.054;2023-09-07T15:42:10;100980.06;;;28.05;27.44
75891;BME280;64571;47.512;19.054;2023-09-07T15:45:13;100977.16;;;27.90;27.71
75891;BME280;64571;47.512;19.054;2023-09-07T15:48:16;100974.31;;;27.94;28.06